Time;durP1;ratioP1;P1;durP2;ratioP2;P2;SDS_P1;SDS_P2;PMS_P1;PMS_P2;Temp;Humidity;BMP_temperature;BMP_pressure;BME280_temperature;BME280_humidity;BME280_pressure;Samples;Min_cycle;Max_cycle;Signal;HPM_P1;HPM_P2
2022/10/23 00:01:47;;;;;;;9.87;4.40;;;;;;;8.01;100.00;100062.30;1798924;78;21514;-81
2022/10/23 00:04:20;;;;;;;6.90;3.97;;;;;;;8.01;100.00;100063.13;1840428;78;20988;-81
2022/10/23 00:06:48;;;;;;;8.53;4.20;;;;;;;8.03;100.00;100062.47;1835591;77;21099;-80
2022/10/23 00:09:18;;;;;;;8.33;4.30;;;;;;;8.05;100.00;100058.28;1839893;77;21484;-80
2022/10/23 00:11:47;;;;;;;6.93;3.90;;;;;;;8.06;100.00;100054.60;1837091;76;20995;-81
2022/10/23 00:14:14;;;;;;;6.73;3.77;;;;;;;8.07;100.00;100052.23;1842465;77;20995;-79
2022/10/23 00:16:41;;;;;;;10.00;4.00;;;;;;;8.09;100.00;100047.53;1836082;78;20988;-80
2022/10/23 00:19:09;;;;;;;8.20;4.17;;;;;;;8.11;100.00;100045.05;1836496;78;21000;-81
2022/10/23 00:21:36;;;;;;;9.13;4.20;;;;;;;8.13;100.00;100043.55;1837293;77;21012;-81
2022/10/23 00:24:04;;;;;;;6.13;3.87;;;;;;;8.14;100.00;100044.75;1833469;78;21515;-81
2022/10/23 00:26:31;;;;;;;7.40;3.87;;;;;;;8.17;100.00;100034.16;1836627;77;21052;-80
2022/10/23 00:28:58;;;;;;;8.93;3.83;;;;;;;8.19;100.00;100038.88;1835472;77;21051;-81
2022/10/23 00:31:24;;;;;;;6.70;3.60;;;;;;;8.21;100.00;100032.83;1839482;77;21031;-81
2022/10/23 00:33:52;;;;;;;5.67;3.60;;;;;;;8.23;100.00;100027.29;1834425;77;20976;-81
2022/10/23 00:36:20;;;;;;;4.97;3.60;;;;;;;8.25;100.00;100028.84;1839603;77;21022;-81
2022/10/23 00:38:48;;;;;;;5.83;3.80;;;;;;;8.27;100.00;100016.53;1839036;77;20988;-79
2022/10/23 00:41:27;;;;;;;6.40;3.83;;;;;;;8.29;100.00;100020.78;1841353;78;21003;-79
2022/10/23 00:44:07;;;;;;;9.30;4.00;;;;;;;8.30;100.00;100013.02;1834877;78;21194;-80
2022/10/23 00:46:35;;;;;;;8.10;3.97;;;;;;;8.30;100.00;100007.64;1831458;77;21000;-80
2022/10/23 00:49:03;;;;;;;7.00;3.63;;;;;;;8.32;100.00;99998.05;1844545;77;21008;-81
2022/10/23 00:51:42;;;;;;;7.23;3.73;;;;;;;8.34;100.00;100002.30;1793343;78;21034;-80
2022/10/23 00:54:09;;;;;;;7.23;4.17;;;;;;;8.35;100.00;99992.36;1833862;78;21023;-81
2022/10/23 00:56:37;;;;;;;7.87;3.80;;;;;;;8.37;100.00;99991.70;1841708;77;21038;-79
2022/10/23 00:59:04;;;;;;;8.20;3.70;;;;;;;8.38;100.00;99986.66;1844404;78;21000;-81
2022/10/23 01:01:32;;;;;;;6.23;3.70;;;;;;;8.40;100.00;99986.51;1832534;78;21048;-81
2022/10/23 01:03:59;;;;;;;6.80;4.07;;;;;;;8.42;100.00;99984.50;1839833;78;21044;-79
2022/10/23 01:06:42;;;;;;;8.90;3.87;;;;;;;8.44;100.00;99977.13;1813883;78;21058;-81
2022/10/23 01:09:19;;;;;;;7.87;3.72;;;;;;;8.47;100.00;99976.81;1827318;78;21042;-81
2022/10/23 01:12:12;;;;;;;8.90;3.77;;;;;;;8.48;100.00;99967.23;1822790;78;20966;-82
2022/10/23 01:14:59;;;;;;;10.28;4.15;;;;;;;8.49;100.00;99966.20;1750753;81;21058;-79
2022/10/23 01:17:53;;;;;;;7.77;4.37;;;;;;;8.51;100.00;99957.45;1752309;81;20971;-81
2022/10/23 01:20:39;;;;;;;8.33;4.30;;;;;;;8.54;100.00;99950.41;1754081;81;21007;-80
2022/10/23 01:23:48;;;;;;;11.87;4.60;;;;;;;8.54;100.00;99940.97;1758086;81;21034;-79
2022/10/23 01:26:56;;;;;;;7.80;4.07;;;;;;;8.56;100.00;99943.52;1750200;81;21488;-81
2022/10/23 01:29:34;;;;;;;6.40;3.87;;;;;;;8.55;100.00;99941.81;1723608;82;21090;-79
2022/10/23 01:32:12;;;;;;;10.30;4.70;;;;;;;8.54;100.00;99928.02;1751517;81;21034;-82
2022/10/23 01:34:52;;;;;;;7.10;4.37;;;;;;;8.53;100.00;99920.44;1720783;83;21114;-80
2022/10/23 01:37:23;;;;;;;8.03;4.03;;;;;;;8.56;100.00;99928.69;1699409;83;21148;-83
2022/10/23 01:39:52;;;;;;;8.65;4.30;;;;;;;8.58;100.00;99916.41;1651467;85;21073;-81
2022/10/23 01:42:25;;;;;;;6.13;3.93;;;;;;;8.58;100.00;99915.06;1689676;84;21020;-82
2022/10/23 01:45:06;;;;;;;8.93;4.23;;;;;;;8.58;100.00;99911.85;1690385;84;21046;-81
2022/10/23 01:47:35;;;;;;;7.50;4.20;;;;;;;8.59;100.00;99901.42;1666406;85;21039;-81
2022/10/23 01:50:05;;;;;;;8.23;4.23;;;;;;;8.60;100.00;99899.56;1677212;85;21059;-82
2022/10/23 01:52:34;;;;;;;10.30;4.63;;;;;;;8.61;100.00;99894.53;1702058;83;21031;-81
2022/10/23 01:55:03;;;;;;;11.27;4.50;;;;;;;8.61;100.00;99895.88;1691129;83;21084;-82
2022/10/23 01:57:32;;;;;;;13.17;4.97;;;;;;;8.61;100.00;99889.97;1713709;83;21048;-81
2022/10/23 02:00:05;;;;;;;10.53;4.80;;;;;;;8.63;100.00;99889.81;1699293;84;21177;-81
2022/10/23 02:02:35;;;;;;;12.23;4.50;;;;;;;8.63;100.00;99887.13;1715342;83;21023;-82
2022/10/23 02:05:16;;;;;;;7.63;4.43;;;;;;;8.64;100.00;99884.75;1693198;82;21038;-83
2022/10/23 02:07:44;;;;;;;8.23;4.33;;;;;;;8.66;100.00;99884.11;1666871;86;21070;-82
2022/10/23 02:10:13;;;;;;;8.53;4.60;;;;;;;8.67;100.00;99889.31;1666931;85;21128;-83
2022/10/23 02:12:59;;;;;;;8.63;4.63;;;;;;;8.68;100.00;99888.83;1667970;86;21102;-81
2022/10/23 02:16:01;;;;;;;10.47;4.80;;;;;;;8.68;100.00;99883.44;1664766;85;21007;-81
2022/10/23 02:18:43;;;;;;;7.58;4.45;;;;;;;8.70;100.00;99886.81;1665128;85;21098;-82
2022/10/23 02:21:15;;;;;;;9.43;4.83;;;;;;;8.70;100.00;99886.30;1666101;85;21086;-80
2022/10/23 02:23:54;;;;;;;8.80;4.40;;;;;;;8.72;100.00;99886.14;1639695;87;21392;-82
2022/10/23 02:26:42;;;;;;;10.80;4.47;;;;;;;8.74;100.00;99884.95;1640746;87;21064;-81
2022/10/23 02:29:27;;;;;;;9.00;4.67;;;;;;;8.76;100.00;99888.84;1634683;87;21040;-80
2022/10/23 02:31:56;;;;;;;9.27;4.87;;;;;;;8.79;100.00;99886.34;1616204;88;21091;-80
2022/10/23 02:34:23;;;;;;;8.43;4.27;;;;;;;8.81;100.00;99878.92;1625072;88;21047;-81
2022/10/23 02:36:50;;;;;;;9.10;4.60;;;;;;;8.85;100.00;99881.14;1662508;86;21087;-80
2022/10/23 02:39:21;;;;;;;6.73;3.90;;;;;;;8.88;100.00;99878.09;1667866;86;21095;-84
2022/10/23 02:42:05;;;;;;;8.33;4.30;;;;;;;8.92;100.00;99875.91;1673865;86;21099;-80
2022/10/23 02:44:56;;;;;;;11.53;4.70;;;;;;;8.95;100.00;99874.76;1692628;81;21067;-82
2022/10/23 02:47:54;;;;;;;10.50;5.00;;;;;;;8.97;100.00;99873.58;1754465;81;21028;-83
2022/10/23 02:50:45;;;;;;;11.10;4.50;;;;;;;9.01;100.00;99868.69;1762380;81;21047;-82
2022/10/23 02:53:19;;;;;;;9.93;4.67;;;;;;;9.02;100.00;99864.48;1748573;81;20992;-80
2022/10/23 02:56:06;;;;;;;10.40;4.50;;;;;;;9.04;100.00;99858.41;1753910;81;21068;-81
2022/10/23 02:59:05;;;;;;;11.97;5.08;;;;;;;9.06;100.00;99862.30;1757088;81;21509;-83
2022/10/23 03:01:51;;;;;;;9.97;4.73;;;;;;;9.07;100.00;99847.82;1760786;81;21031;-82
2022/10/23 03:04:18;;;;;;;9.57;4.27;;;;;;;9.09;100.00;99849.84;1752816;81;21098;-82
2022/10/23 03:06:45;;;;;;;10.43;4.17;;;;;;;9.11;100.00;99853.21;1760421;81;21030;-80
2022/10/23 03:09:14;;;;;;;11.80;4.60;;;;;;;9.11;100.00;99848.65;1802107;78;21517;-83
2022/10/23 03:11:41;;;;;;;10.20;4.23;;;;;;;9.13;100.00;99849.84;1833521;78;21019;-83
2022/10/23 03:14:12;;;;;;;8.10;4.00;;;;;;;9.13;100.00;99858.77;1832505;78;21020;-81
2022/10/23 03:16:39;;;;;;;12.17;5.43;;;;;;;9.13;100.00;99850.67;1837813;77;21000;-81
2022/10/23 03:19:08;;;;;;;11.70;4.67;;;;;;;9.12;100.00;99853.05;1829466;77;21036;-82
2022/10/23 03:21:36;;;;;;;11.03;5.60;;;;;;;9.12;100.00;99846.81;1828275;77;21032;-80
2022/10/23 03:24:04;;;;;;;10.50;4.85;;;;;;;9.10;100.00;99851.02;1830362;78;21009;-83
2022/10/23 03:26:32;;;;;;;10.87;5.07;;;;;;;9.07;100.00;99844.61;1796499;78;21007;-79
2022/10/23 03:28:59;;;;;;;12.68;5.33;;;;;;;9.06;100.00;99844.25;1803865;77;21006;-79
2022/10/23 03:31:26;;;;;;;12.98;5.10;;;;;;;9.04;100.00;99848.14;1817206;79;21474;-81
2022/10/23 03:33:55;;;;;;;12.33;5.15;;;;;;;9.02;100.00;99846.95;1837439;78;21497;-81
2022/10/23 03:36:22;;;;;;;14.05;5.47;;;;;;;9.03;100.00;99839.70;1836953;77;21044;-82
2022/10/23 03:38:49;;;;;;;11.78;5.42;;;;;;;9.01;100.00;99836.33;1835758;78;21043;-78
2022/10/23 03:41:16;;;;;;;13.80;6.25;;;;;;;8.99;100.00;99837.00;1835925;77;20993;-83
2022/10/23 03:43:44;;;;;;;13.10;5.43;;;;;;;8.96;100.00;99836.84;1839714;78;21016;-80
2022/10/23 03:46:11;;;;;;;13.13;5.53;;;;;;;8.96;100.00;99829.23;1836469;77;20984;-83
2022/10/23 03:48:41;;;;;;;15.75;6.53;;;;;;;8.93;100.00;99829.91;1835042;76;20984;-84
2022/10/23 03:51:08;;;;;;;16.17;6.37;;;;;;;8.92;100.00;99821.50;1838772;77;21035;-80
2022/10/23 03:53:36;;;;;;;16.87;6.62;;;;;;;8.92;100.00;99819.29;1839761;76;21016;-80
2022/10/23 03:56:04;;;;;;;14.65;5.58;;;;;;;8.89;100.00;99821.83;1840282;77;21024;-78
2022/10/23 03:58:32;;;;;;;17.30;7.00;;;;;;;8.92;100.00;99817.94;1825758;78;21051;-80
2022/10/23 04:00:58;;;;;;;16.75;6.42;;;;;;;8.91;100.00;99814.92;1834696;77;21067;-80
2022/10/23 04:03:27;;;;;;;18.33;7.33;;;;;;;8.89;100.00;99807.00;1836427;77;20992;-82
2022/10/23 04:05:54;;;;;;;21.30;7.33;;;;;;;8.89;100.00;99811.55;1844188;77;20991;-80
2022/10/23 04:08:22;;;;;;;17.30;7.33;;;;;;;8.89;100.00;99811.04;1837337;77;21008;-79
2022/10/23 04:10:54;;;;;;;17.62;7.28;;;;;;;8.89;100.00;99806.16;1834020;77;21068;-80
2022/10/23 04:13:23;;;;;;;18.80;7.20;;;;;;;8.91;100.00;99803.63;1837041;78;21016;-80
2022/10/23 04:15:52;;;;;;;19.50;7.03;;;;;;;8.91;100.00;99806.32;1839606;78;20980;-80
2022/10/23 04:18:19;;;;;;;15.43;6.43;;;;;;;8.91;100.00;99803.63;1794188;78;21048;-78
2022/10/23 04:20:48;;;;;;;15.97;6.73;;;;;;;8.93;100.00;99804.30;1841613;77;21040;-80
2022/10/23 04:23:15;;;;;;;16.10;5.95;;;;;;;8.95;100.00;99804.13;1837481;77;21020;-80
2022/10/23 04:25:43;;;;;;;16.12;6.53;;;;;;;8.98;100.00;99795.72;1778977;76;21042;-79
2022/10/23 04:28:11;;;;;;;13.73;5.77;;;;;;;9.01;100.00;99784.61;1786164;78;21035;-80
2022/10/23 04:30:38;;;;;;;13.30;5.67;;;;;;;9.03;100.00;99786.63;1779644;80;21022;-78
2022/10/23 04:33:06;;;;;;;11.20;5.08;;;;;;;9.04;100.00;99786.11;1835814;78;21510;-78
2022/10/23 04:35:34;;;;;;;9.80;4.58;;;;;;;9.06;100.00;99776.83;1837114;77;20980;-78
2022/10/23 04:38:01;;;;;;;9.93;4.47;;;;;;;9.07;100.00;99777.69;1841122;77;21000;-80
2022/10/23 04:40:29;;;;;;;10.32;4.62;;;;;;;9.09;100.00;99777.02;1839629;77;21024;-78
2022/10/23 04:42:55;;;;;;;8.17;4.03;;;;;;;9.10;100.00;99778.69;1834681;78;21019;-81
2022/10/23 04:45:23;;;;;;;10.15;4.55;;;;;;;9.10;100.00;99779.55;1837283;78;20999;-79
2022/10/23 04:47:52;;;;;;;12.20;4.55;;;;;;;9.11;100.00;99774.47;1836886;78;21001;-83
2022/10/23 04:50:20;;;;;;;14.30;4.37;;;;;;;9.13;100.00;99775.66;1835801;78;21040;-80
2022/10/23 04:53:05;;;;;;;9.08;4.65;;;;;;;9.15;100.00;99774.14;1800801;78;21008;-80
2022/10/23 04:55:41;;;;;;;9.33;4.12;;;;;;;9.16;100.00;99779.37;1757985;80;21056;-80
2022/10/23 04:58:13;;;;;;;8.87;3.83;;;;;;;9.19;100.00;99775.48;1755100;80;21010;-81
2022/10/23 05:00:41;;;;;;;7.97;4.20;;;;;;;9.20;100.00;99773.97;1757271;80;21001;-81
2022/10/23 05:03:09;;;;;;;6.92;3.90;;;;;;;9.24;100.00;99771.78;1731993;81;21580;-80
2022/10/23 05:05:39;;;;;;;9.85;4.67;;;;;;;9.26;100.00;99771.96;1723802;83;21173;-81
2022/10/23 05:08:08;;;;;;;11.20;4.55;;;;;;;9.30;100.00;99777.34;1729453;83;21137;-82
2022/10/23 05:10:50;;;;;;;12.03;4.60;;;;;;;9.34;100.00;99772.45;1718483;83;21089;-81
2022/10/23 05:13:18;;;;;;;16.32;6.00;;;;;;;9.39;100.00;99767.91;1723097;83;21034;-82
2022/10/23 05:15:49;;;;;;;14.03;5.90;;;;;;;9.41;100.00;99766.71;1720943;83;21102;-82
2022/10/23 05:18:30;;;;;;;12.82;5.20;;;;;;;9.46;100.00;99768.39;1728529;81;21036;-82
2022/10/23 05:21:11;;;;;;;13.80;6.15;;;;;;;9.50;100.00;99760.80;1713432;83;21081;-83
2022/10/23 05:23:42;;;;;;;14.15;5.62;;;;;;;9.55;100.00;99758.95;1691717;83;21056;-82
2022/10/23 05:26:09;;;;;;;16.75;6.25;;;;;;;9.59;100.00;99762.47;1687544;84;21030;-83
2022/10/23 05:28:37;;;;;;;15.98;6.20;;;;;;;9.63;100.00;99760.27;1697891;84;20995;-82
2022/10/23 05:31:04;;;;;;;13.38;6.30;;;;;;;9.65;100.00;99763.14;1671684;85;21059;-83
2022/10/23 05:33:34;;;;;;;14.28;6.35;;;;;;;9.68;100.00;99757.41;1721039;82;21042;-81
2022/10/23 05:36:03;;;;;;;16.05;6.58;;;;;;;9.70;100.00;99754.51;1727992;82;21069;-81
2022/10/23 05:38:32;;;;;;;15.10;6.45;;;;;;;9.74;100.00;99759.92;1696885;85;21038;-80
2022/10/23 05:41:00;;;;;;;15.32;6.05;;;;;;;9.76;100.00;99751.14;1673983;85;21046;-82
2022/10/23 05:43:30;;;;;;;13.45;6.72;;;;;;;9.78;100.00;99750.97;1697154;84;21113;-81
2022/10/23 05:46:05;;;;;;;14.98;6.65;;;;;;;9.80;100.00;99757.86;1670162;85;21069;-80
2022/10/23 05:48:50;;;;;;;15.75;6.35;;;;;;;9.85;100.00;99757.36;1667577;85;21061;-83
2022/10/23 05:51:28;;;;;;;16.48;5.70;;;;;;;9.88;100.00;99753.80;1592446;87;21069;-83
2022/10/23 05:54:00;;;;;;;10.70;4.92;;;;;;;9.89;100.00;99750.06;1624643;87;21091;-83
2022/10/23 05:56:36;;;;;;;9.23;4.17;;;;;;;9.94;100.00;99756.83;1621792;87;21131;-82
2022/10/23 05:59:08;;;;;;;7.80;4.00;;;;;;;9.97;100.00;99755.97;1622597;87;21062;-81
2022/10/23 06:01:50;;;;;;;9.58;4.08;;;;;;;9.99;100.00;99755.28;1619769;88;21034;-80
2022/10/23 06:04:19;;;;;;;8.33;3.37;;;;;;;10.02;100.00;99754.08;1583644;91;21567;-80
2022/10/23 06:06:55;;;;;;;7.10;4.00;;;;;;;10.04;100.00;99753.42;1530012;93;21133;-82
2022/10/23 06:09:23;;;;;;;7.12;3.10;;;;;;;10.07;100.00;99748.52;1499186;93;21097;-81
2022/10/23 06:11:52;;;;;;;6.05;3.15;;;;;;;10.11;100.00;99748.14;1487234;96;21129;-81
2022/10/23 06:14:22;;;;;;;4.58;2.33;;;;;;;10.14;100.00;99745.09;1489078;96;21081;-81
2022/10/23 06:16:50;;;;;;;4.78;2.58;;;;;;;10.16;100.00;99745.75;1470180;96;21591;-80
2022/10/23 06:19:18;;;;;;;3.70;2.47;;;;;;;10.17;100.00;99748.28;1491028;93;21197;-80
2022/10/23 06:21:46;;;;;;;4.37;3.10;;;;;;;10.20;100.00;99742.53;1529197;93;21052;-80
2022/10/23 06:24:14;;;;;;;4.97;2.47;;;;;;;10.24;100.00;99748.43;1529781;92;21119;-80
2022/10/23 06:26:42;;;;;;;6.55;3.52;;;;;;;10.26;100.00;99743.69;1517395;92;21094;-80
2022/10/23 06:29:11;;;;;;;3.12;2.60;;;;;;;10.28;100.00;99740.30;1593038;88;21030;-81
2022/10/23 06:31:38;;;;;;;4.83;3.05;;;;;;;10.30;100.00;99736.07;1620905;87;21083;-80
2022/10/23 06:34:05;;;;;;;5.22;3.02;;;;;;;10.34;100.00;99737.42;1660528;85;21098;-83
2022/10/23 06:36:34;;;;;;;7.60;2.95;;;;;;;10.36;100.00;99733.54;1650362;85;21082;-81
2022/10/23 06:39:03;;;;;;;6.10;3.25;;;;;;;10.37;100.00;99729.80;1651853;85;21053;-78
2022/10/23 06:41:32;;;;;;;8.43;3.33;;;;;;;10.39;100.00;99729.14;1654850;85;21065;-81
2022/10/23 06:44:00;;;;;;;8.98;3.80;;;;;;;10.40;100.00;99724.56;1685589;82;21065;-80
2022/10/23 06:46:31;;;;;;;7.80;3.70;;;;;;;10.40;100.00;99718.64;1723114;83;21033;-82
2022/10/23 06:49:16;;;;;;;6.75;3.58;;;;;;;10.40;100.00;99721.34;1724525;83;21452;-81
2022/10/23 06:51:47;;;;;;;8.55;4.30;;;;;;;10.40;100.00;99719.99;1717040;82;21124;-82
2022/10/23 06:54:15;;;;;;;9.85;4.00;;;;;;;10.41;100.00;99720.34;1725904;83;21031;-80
2022/10/23 06:56:50;;;;;;;9.58;4.37;;;;;;;10.42;100.00;99722.52;1725399;83;21053;-83
2022/10/23 06:59:19;;;;;;;9.00;4.10;;;;;;;10.42;100.00;99716.59;1721612;83;21152;-80
2022/10/23 07:01:46;;;;;;;11.70;4.60;;;;;;;10.43;100.00;99714.23;1786408;78;21505;-83
2022/10/23 07:04:14;;;;;;;9.90;5.03;;;;;;;10.42;100.00;99707.66;1803847;79;20985;-79
2022/10/23 07:06:42;;;;;;;10.05;4.78;;;;;;;10.39;100.00;99702.59;1804480;79;20969;-82
2022/10/23 07:09:09;;;;;;;9.80;4.10;;;;;;;10.37;100.00;99704.13;1798048;79;21072;-82
2022/10/23 07:11:51;;;;;;;9.80;4.28;;;;;;;10.35;100.00;99699.41;1800906;78;21008;-83
2022/10/23 07:14:20;;;;;;;8.30;4.15;;;;;;;10.36;100.00;99704.33;1806465;79;21024;-81
2022/10/23 07:16:47;;;;;;;8.25;4.28;;;;;;;10.36;100.00;99694.88;1807512;78;21051;-83
2022/10/23 07:19:14;;;;;;;17.27;5.65;;;;;;;10.35;100.00;99700.77;1801135;78;21525;-82
2022/10/23 07:21:53;;;;;;;8.98;4.67;;;;;;;10.36;100.00;99693.52;1802636;78;21024;-83
2022/10/23 07:24:24;;;;;;;7.65;4.17;;;;;;;10.35;100.00;99691.30;1703034;84;21053;-83
2022/10/23 07:26:53;;;;;;;7.42;3.90;;;;;;;10.37;100.00;99683.02;1688309;83;21135;-82
2022/10/23 07:29:22;;;;;;;7.65;4.00;;;;;;;10.40;100.00;99682.67;1692700;83;21780;-83
2022/10/23 07:31:49;;;;;;;8.95;4.03;;;;;;;10.41;100.00;99678.44;1682482;83;21103;-80
2022/10/23 07:34:17;;;;;;;7.55;3.95;;;;;;;10.43;100.00;99685.86;1652772;86;21021;-83
2022/10/23 07:36:46;;;;;;;11.63;4.47;;;;;;;10.43;100.00;99679.63;1622354;87;21055;-83
2022/10/23 07:39:13;;;;;;;7.28;3.60;;;;;;;10.44;100.00;99686.17;1603867;89;21063;-82
2022/10/23 07:41:41;;;;;;;5.28;3.33;;;;;;;10.46;100.00;99683.30;1603875;88;21079;-83
2022/10/23 07:44:08;;;;;;;7.85;3.25;;;;;;;10.45;100.00;99676.22;1619037;88;21156;-82
2022/10/23 07:46:35;;;;;;;9.45;3.55;;;;;;;10.44;100.00;99670.47;1587941;89;21067;-85
2022/10/23 07:49:02;;;;;;;6.72;3.45;;;;;;;10.43;100.00;99669.64;1627387;88;21094;-84
2022/10/23 07:51:29;;;;;;;5.87;2.90;;;;;;;10.42;100.00;99677.92;1628413;87;21198;-83
2022/10/23 07:53:58;;;;;;;6.53;3.20;;;;;;;10.39;100.00;99679.63;1626109;87;21581;-83
2022/10/23 07:56:32;;;;;;;3.98;2.50;;;;;;;10.36;100.00;99671.90;1626316;87;21055;-81
2022/10/23 07:59:00;;;;;;;4.33;2.80;;;;;;;10.34;100.00;99669.38;1612312;88;21516;-81
2022/10/23 08:01:36;;;;;;;3.92;2.70;;;;;;;10.33;100.00;99671.73;1597870;88;21085;-82
2022/10/23 08:04:04;;;;;;;5.22;2.65;;;;;;;10.34;100.00;99665.80;1586989;89;21070;-83
2022/10/23 08:06:34;;;;;;;6.22;2.90;;;;;;;10.31;100.00;99664.31;1585110;89;21043;-81
2022/10/23 08:09:02;;;;;;;6.28;2.92;;;;;;;10.31;100.00;99668.37;1576578;89;21132;-81
2022/10/23 08:11:34;;;;;;;6.75;3.20;;;;;;;10.31;100.00;99662.09;1594317;83;21104;-79
2022/10/23 08:13:58;;;;;;;3.85;2.45;;;;;;;10.31;100.00;99675.61;1633031;85;21074;-79
2022/10/23 08:16:28;;;;;;;3.83;2.47;;;;;;;10.30;100.00;99667.98;1669987;85;21105;-79
2022/10/23 08:19:05;;;;;;;5.62;2.80;;;;;;;10.31;100.00;99670.20;1678082;84;21102;-83
2022/10/23 08:21:33;;;;;;;2.80;1.77;;;;;;;10.31;100.00;99652.16;1755795;80;21022;-84
2022/10/23 08:24:00;;;;;;;4.83;2.45;;;;;;;10.31;100.00;99664.31;1787460;80;21045;-83
2022/10/23 08:26:29;;;;;;;4.08;2.05;;;;;;;10.31;100.00;99668.86;1787112;80;21024;-85
2022/10/23 08:29:00;;;;;;;3.37;2.70;;;;;;;10.31;100.00;99658.05;1788256;80;21567;-82
2022/10/23 08:31:27;;;;;;;2.92;2.20;;;;;;;10.30;100.00;99657.18;1784766;80;21022;-82
2022/10/23 08:34:04;;;;;;;4.58;2.10;;;;;;;10.32;100.00;99658.39;1780205;80;20990;-84
2022/10/23 08:36:32;;;;;;;3.45;2.50;;;;;;;10.35;100.00;99652.12;1767562;79;21415;-84
2022/10/23 08:39:00;;;;;;;5.60;2.60;;;;;;;10.34;100.00;99653.64;1799855;78;21043;-79
2022/10/23 08:41:35;;;;;;;5.78;2.47;;;;;;;10.33;100.00;99637.95;1803992;78;21496;-81
2022/10/23 08:44:33;;;;;;;3.50;2.50;;;;;;;10.33;100.00;99642.00;1799041;79;21020;-79
2022/10/23 08:47:28;;;;;;;3.20;2.20;;;;;;;10.32;100.00;99638.95;1803841;78;21043;-81
2022/10/23 08:50:28;;;;;;;4.72;2.37;;;;;;;10.30;100.00;99632.86;1804292;78;21031;-82
2022/10/23 08:53:31;;;;;;;2.58;2.12;;;;;;;10.33;100.00;99624.44;1805347;78;21012;-83
2022/10/23 08:56:05;;;;;;;2.75;2.45;;;;;;;10.34;100.00;99620.72;1759724;80;22476;-82
2022/10/23 08:58:47;;;;;;;;;;;;;;;10.37;100.00;99613.58;1682731;84;21074;-83
2022/10/23 09:01:48;;;;;;;3.70;2.10;;;;;;;10.38;100.00;99604.98;1696840;83;20120;-82
2022/10/23 09:04:17;;;;;;;3.42;2.30;;;;;;;10.37;100.00;99598.72;1639630;85;21081;-82
2022/10/23 09:07:10;;;;;;;4.37;2.10;;;;;;;10.30;100.00;99595.03;1666786;84;21068;-80
2022/10/23 09:09:55;;;;;;;2.98;2.08;;;;;;;10.26;100.00;99589.14;1606470;87;21109;-80
2022/10/23 09:12:24;;;;;;;5.78;2.02;;;;;;;10.24;100.00;99594.41;1620608;86;21122;-80
2022/10/23 09:15:29;;;;;;;4.25;2.20;;;;;;;10.21;100.00;99586.14;1620863;86;21061;-80
2022/10/23 09:18:12;;;;;;;6.37;2.60;;;;;;;10.22;100.00;99579.73;1620391;87;21072;-79
2022/10/23 09:20:40;;;;;;;8.45;3.40;;;;;;;10.20;100.00;99575.02;1619616;86;21066;-80
2022/10/23 09:23:18;;;;;;;8.03;3.80;;;;;;;10.22;100.00;99566.73;1623218;85;21100;-79
2022/10/23 09:25:46;;;;;;;9.78;3.75;;;;;;;10.23;100.00;99564.34;1620876;86;21105;-79
2022/10/23 09:28:22;;;;;;;8.40;4.12;;;;;;;10.18;100.00;99551.39;1619812;86;21228;-79
2022/10/23 09:30:51;;;;;;;7.50;3.67;;;;;;;10.17;100.00;99551.05;1619485;87;21076;-74
2022/10/23 09:33:25;;;;;;;7.53;3.47;;;;;;;10.16;100.00;99545.83;1619157;85;21128;-73
2022/10/23 09:36:08;;;;;;;7.28;3.45;;;;;;;10.16;100.00;99538.55;1629131;86;21203;-73
2022/10/23 09:38:38;;;;;;;6.57;3.20;;;;;;;10.13;100.00;99540.29;1594771;88;21052;-74
2022/10/23 09:41:11;;;;;;;8.00;3.33;;;;;;;10.12;100.00;99539.11;1596105;89;21051;-74
2022/10/23 09:43:39;;;;;;;5.92;2.70;;;;;;;10.10;100.00;99533.05;1600281;89;21589;-76
2022/10/23 09:46:08;;;;;;;5.42;2.67;;;;;;;10.08;100.00;99527.83;1625299;86;21063;-75
2022/10/23 09:48:35;;;;;;;3.65;2.20;;;;;;;10.04;100.00;99522.47;1648940;85;21055;-73
2022/10/23 09:51:05;;;;;;;2.58;2.25;;;;;;;10.01;100.00;99525.52;1646431;85;21019;-73
2022/10/23 09:53:39;;;;;;;3.50;1.92;;;;;;;9.96;100.00;99519.81;1587636;90;21053;-73
2022/10/23 09:56:37;;;;;;;2.98;2.08;;;;;;;9.92;100.00;99518.50;1588827;89;21076;-72
2022/10/23 09:59:12;;;;;;;3.20;2.00;;;;;;;9.89;100.00;99508.88;1557044;90;21109;-72
2022/10/23 10:01:50;;;;;;;5.10;2.52;;;;;;;9.87;100.00;99504.17;1562298;89;21060;-73
2022/10/23 10:04:39;;;;;;;4.60;2.37;;;;;;;9.84;100.00;99499.13;1615593;89;21046;-73
2022/10/23 10:07:21;;;;;;;3.40;2.27;;;;;;;9.80;100.00;99494.59;1645028;85;21598;-74
2022/10/23 10:09:48;;;;;;;4.80;2.50;;;;;;;9.76;100.00;99489.23;1609449;88;21145;-75
2022/10/23 10:12:39;;;;;;;6.45;2.90;;;;;;;9.73;100.00;99482.00;1642503;87;21563;-72
2022/10/23 10:15:33;;;;;;;4.53;2.45;;;;;;;9.71;100.00;99477.30;1573717;90;21126;-75
2022/10/23 10:18:16;;;;;;;6.25;2.70;;;;;;;9.69;100.00;99468.02;1605380;89;21073;-73
2022/10/23 10:21:18;;;;;;;5.08;2.80;;;;;;;9.68;100.00;99463.14;1598697;88;21081;-73
2022/10/23 10:24:09;;;;;;;4.72;2.27;;;;;;;9.68;100.00;99459.58;1530932;92;21057;-74
2022/10/23 10:27:11;;;;;;;3.22;2.37;;;;;;;9.68;100.00;99446.08;1529001;92;21579;-73
2022/10/23 10:30:09;;;;;;;2.70;1.92;;;;;;;9.71;100.00;99444.91;1522817;92;21090;-72
2022/10/23 10:32:57;;;;;;;2.67;1.98;;;;;;;9.74;100.00;99436.42;1523634;92;21166;-72
2022/10/23 10:35:51;;;;;;;2.62;2.02;;;;;;;9.79;100.00;99433.53;1519354;93;21176;-74
2022/10/23 10:38:52;;;;;;;2.83;2.08;;;;;;;9.82;100.00;99432.31;1518826;94;21109;-72
2022/10/23 10:41:31;;;;;;;4.28;2.17;;;;;;;9.86;100.00;99425.52;1519028;93;21636;-73
2022/10/23 10:44:25;;;;;;;2.98;2.00;;;;;;;9.88;100.00;99416.76;1491231;94;21634;-73
2022/10/23 10:47:27;;;;;;;3.15;1.98;;;;;;;9.89;100.00;99413.84;1492989;95;21116;-72
2022/10/23 10:50:09;;;;;;;9.45;3.10;;;;;;;9.90;100.00;99402.56;1529019;92;21227;-72
2022/10/23 10:53:00;;;;;;;5.12;2.50;;;;;;;9.91;100.00;99402.04;1524478;93;21553;-74
2022/10/23 10:55:35;;;;;;;4.78;2.20;;;;;;;9.92;100.00;99396.45;1580075;88;21614;-74
2022/10/23 10:58:42;;;;;;;7.30;3.15;;;;;;;9.93;100.00;99388.66;1609209;89;21622;-73
2022/10/23 11:01:30;;;;;;;4.65;2.30;;;;;;;9.95;100.00;99379.89;1634749;85;21073;-73
2022/10/23 11:04:23;;;;;;;3.40;2.00;;;;;;;9.97;100.00;99379.20;1711789;81;21539;-73
2022/10/23 11:06:52;;;;;;;2.40;2.00;;;;;;;9.98;100.00;99370.05;1746232;81;21041;-73
2022/10/23 11:09:21;;;;;;;4.10;2.00;;;;;;;10.00;100.00;99366.66;1733554;81;21506;-72
2022/10/23 11:11:48;;;;;;;4.72;2.30;;;;;;;10.04;100.00;99367.16;1743786;81;21527;-73
2022/10/23 11:14:18;;;;;;;2.75;2.40;;;;;;;10.06;100.00;99356.48;1743551;81;20994;-74
2022/10/23 11:16:53;;;;;;;5.95;2.35;;;;;;;10.10;100.00;99363.70;1670795;85;21112;-74
2022/10/23 11:19:27;;;;;;;6.08;2.95;;;;;;;10.15;100.00;99345.08;1658671;86;21123;-74
2022/10/23 11:22:34;;;;;;;5.03;2.40;;;;;;;10.19;100.00;99332.04;1657112;86;21100;-74
2022/10/23 11:25:29;;;;;;;5.15;2.98;;;;;;;10.22;100.00;99324.40;1670530;84;21084;-75
2022/10/23 11:28:25;;;;;;;5.33;2.85;;;;;;;10.29;100.00;99311.48;1665934;85;21065;-73
2022/10/23 11:31:21;;;;;;;6.20;2.95;;;;;;;10.33;100.00;99304.20;1661772;84;21053;-75
2022/10/23 11:34:22;;;;;;;6.80;3.10;;;;;;;10.39;100.00;99293.16;1680719;83;21567;-74
2022/10/23 11:36:53;;;;;;;3.37;2.87;;;;;;;10.44;100.00;99297.48;1710158;83;21105;-73
2022/10/23 11:39:31;;;;;;;9.15;3.42;;;;;;;10.48;100.00;99298.77;1665532;84;21526;-75
2022/10/23 11:42:13;;;;;;;4.45;2.87;;;;;;;10.52;100.00;99290.63;1610171;88;21090;-73
2022/10/23 11:44:48;;;;;;;4.45;2.90;;;;;;;10.57;100.00;99275.17;1612670;88;21120;-75
2022/10/23 11:47:36;;;;;;;5.33;3.22;;;;;;;10.61;100.00;99277.84;1612518;88;21065;-76
2022/10/23 11:50:13;;;;;;;7.10;2.75;;;;;;;10.62;100.00;99266.84;1635836;87;21089;-74
2022/10/23 11:53:03;;;;;;;5.58;3.33;;;;;;;10.67;100.00;99262.72;1635813;87;21042;-74
2022/10/23 11:55:30;;;;;;;9.28;4.03;;;;;;;10.69;100.00;99252.03;1666294;85;21200;-74
2022/10/23 11:58:19;;;;;;;8.55;3.75;;;;;;;10.71;100.00;99248.64;1670823;85;21602;-77
2022/10/23 12:01:04;;;;;;;7.10;3.47;;;;;;;10.74;100.00;99241.48;1626229;86;21099;-76
2022/10/23 12:03:41;;;;;;;5.50;3.20;;;;;;;10.78;100.00;99235.17;1649972;86;21050;-75